createdAt,value
2018-08-22T05:39:14.446Z,99.90
2018-08-22T05:41:43.390Z,99.90
2018-08-22T05:44:12.518Z,99.90
2018-08-22T05:46:41.006Z,99.90
2018-08-22T05:49:09.547Z,99.90
2018-08-22T05:51:38.030Z,99.90
2018-08-22T05:54:07.569Z,99.90
2018-08-22T05:56:36.479Z,99.90
2018-08-22T05:59:10.192Z,99.90
2018-08-22T06:01:39.019Z,99.90
2018-08-22T06:04:07.608Z,99.90
2018-08-22T06:06:36.072Z,99.90
2018-08-22T06:09:08.459Z,99.90
2018-08-22T06:11:37.410Z,99.90
2018-08-22T06:14:06.207Z,99.90
2018-08-22T06:16:34.679Z,99.90
2018-08-22T06:19:03.149Z,99.90
2018-08-22T06:21:31.724Z,99.90
2018-08-22T06:24:00.219Z,99.90
2018-08-22T06:26:28.784Z,99.90
2018-08-22T06:28:57.276Z,99.90
2018-08-22T06:31:25.740Z,99.90
2018-08-22T06:33:54.444Z,99.90
2018-08-22T06:36:22.946Z,99.90
2018-08-22T06:38:51.499Z,99.90
2018-08-22T06:41:19.989Z,99.90
2018-08-22T06:43:48.567Z,99.90
2018-08-22T06:46:17.027Z,99.90
2018-08-22T06:48:45.493Z,99.90
2018-08-22T06:51:13.991Z,99.90
2018-08-22T06:53:42.540Z,99.90
2018-08-22T06:56:11.038Z,99.90
2018-08-22T06:58:39.502Z,99.90
2018-08-22T07:01:07.996Z,99.90
2018-08-22T07:03:36.648Z,99.90
2018-08-22T07:06:05.141Z,99.90
2018-08-22T07:08:33.636Z,99.60
2018-08-22T07:11:02.151Z,99.40
2018-08-22T07:13:30.634Z,99.10
2018-08-22T07:15:59.119Z,99.00
2018-08-22T07:18:27.658Z,99.00
2018-08-22T07:20:56.119Z,99.00
2018-08-22T07:23:24.670Z,98.90
2018-08-22T07:25:53.137Z,99.10
2018-08-22T07:28:21.609Z,99.70
2018-08-22T07:30:50.124Z,99.60
2018-08-22T07:33:18.679Z,99.70
2018-08-22T07:35:47.183Z,99.90
2018-08-22T07:38:15.600Z,99.90
2018-08-22T07:40:44.052Z,99.90
2018-08-22T07:43:12.628Z,99.90
2018-08-22T07:45:41.122Z,99.70
2018-08-22T07:48:09.600Z,99.50
2018-08-22T07:50:38.071Z,99.40
2018-08-22T07:53:06.633Z,99.20
2018-08-22T07:55:37.438Z,99.10
2018-08-22T07:58:06.137Z,99.10
2018-08-22T08:00:34.622Z,99.00
2018-08-22T08:03:03.240Z,99.00
2018-08-22T08:05:31.837Z,98.90
2018-08-22T08:08:00.309Z,98.80
2018-08-22T08:10:34.918Z,98.50
2018-08-22T08:13:04.308Z,98.30
2018-08-22T08:15:32.810Z,98.10
2018-08-22T08:18:01.293Z,98.10
2018-08-22T08:20:29.817Z,98.00
2018-08-22T08:22:58.401Z,97.80
2018-08-22T08:25:26.922Z,97.60
2018-08-22T08:27:55.413Z,97.40
2018-08-22T08:30:23.893Z,97.10
2018-08-22T08:32:52.461Z,96.80
2018-08-22T08:35:20.937Z,96.60
2018-08-22T08:37:49.449Z,96.30
2018-08-22T08:40:17.993Z,96.00
2018-08-22T08:42:46.593Z,96.10
2018-08-22T08:45:15.083Z,95.50
2018-08-22T08:47:43.570Z,95.00
2018-08-22T08:50:12.038Z,94.80
2018-08-22T08:52:40.568Z,94.00
2018-08-22T08:55:09.082Z,93.30
2018-08-22T08:57:37.551Z,93.00
2018-08-22T09:00:06.086Z,92.70
2018-08-22T09:02:34.591Z,92.30
2018-08-22T09:05:03.120Z,91.70
2018-08-22T09:07:31.616Z,91.30
2018-08-22T09:10:00.124Z,90.80
2018-08-22T09:12:28.601Z,90.60
2018-08-22T09:17:25.665Z,89.80
2018-08-22T09:19:54.099Z,89.00
2018-08-22T09:22:22.652Z,88.40
2018-08-22T09:24:51.131Z,87.60
2018-08-22T09:27:19.648Z,87.60
2018-08-22T09:29:48.206Z,86.50
2018-08-22T09:32:16.694Z,85.50
2018-08-22T09:34:45.328Z,84.40
2018-08-22T09:37:13.838Z,83.40
2018-08-22T09:39:42.380Z,81.40
2018-08-22T09:42:10.899Z,81.30
2018-08-22T09:44:39.413Z,80.80
2018-08-22T09:47:07.918Z,80.10
2018-08-22T09:49:36.393Z,78.70
2018-08-22T09:52:04.981Z,78.20
2018-08-22T09:54:40.986Z,77.20
2018-08-22T09:57:09.481Z,77.00
2018-08-22T09:59:38.001Z,76.70
2018-08-22T10:02:06.547Z,77.20
2018-08-22T10:04:35.195Z,75.80
2018-08-22T10:07:03.759Z,75.40
2018-08-22T10:09:32.197Z,74.40
2018-08-22T10:12:00.683Z,73.00
2018-08-22T10:14:29.297Z,72.50
2018-08-22T10:16:57.824Z,72.60
2018-08-22T10:19:26.298Z,71.50
2018-08-22T10:21:54.830Z,72.60
2018-08-22T10:24:23.426Z,71.30
2018-08-22T10:26:51.952Z,70.60
2018-08-22T10:29:20.476Z,69.60
2018-08-22T10:31:48.997Z,69.80
2018-08-22T10:34:17.866Z,69.00
2018-08-22T10:36:46.399Z,69.00
2018-08-22T10:39:14.922Z,68.10
2018-08-22T10:41:43.472Z,67.90
2018-08-22T10:44:12.115Z,66.70
2018-08-22T10:46:40.675Z,66.20
2018-08-22T10:49:09.176Z,66.20
2018-08-22T10:51:37.681Z,65.20
2018-08-22T10:54:06.536Z,64.40
2018-08-22T10:56:35.088Z,63.60
2018-08-22T10:59:03.593Z,62.90
2018-08-22T11:01:32.123Z,61.70
2018-08-22T11:04:00.730Z,61.40
2018-08-22T11:06:29.272Z,61.50
2018-08-22T11:08:57.782Z,60.50
2018-08-22T11:11:26.272Z,59.40
2018-08-22T11:13:54.888Z,59.20
2018-08-22T11:16:23.412Z,58.50
2018-08-22T11:18:51.948Z,58.00
2018-08-22T11:21:31.526Z,57.00
2018-08-22T11:24:11.383Z,56.50
2018-08-22T11:26:50.961Z,55.70
2018-08-22T11:29:30.715Z,55.10
2018-08-22T11:32:10.563Z,54.50
2018-08-22T11:34:47.093Z,53.90
2018-08-22T11:37:16.609Z,53.00
2018-08-22T11:39:46.515Z,52.20
2018-08-22T11:42:15.035Z,51.10
2018-08-22T11:44:43.536Z,50.90
2018-08-22T11:47:12.036Z,50.50
2018-08-22T11:49:40.598Z,50.40
2018-08-22T11:52:09.116Z,49.40
2018-08-22T11:54:37.723Z,48.60
2018-08-22T11:57:06.519Z,48.40
2018-08-22T11:59:35.197Z,48.80
2018-08-22T12:02:03.801Z,48.60
2018-08-22T12:04:32.465Z,48.90
2018-08-22T12:07:00.981Z,49.60
2018-08-22T12:09:29.501Z,49.00
2018-08-22T12:11:57.991Z,49.20
2018-08-22T12:14:26.608Z,49.40
2018-08-22T12:16:55.109Z,49.10
2018-08-22T12:19:23.678Z,49.20
2018-08-22T12:21:52.200Z,49.40
2018-08-22T12:24:20.806Z,49.60
2018-08-22T12:26:49.295Z,49.80
2018-08-22T12:29:17.882Z,49.40
2018-08-22T12:31:46.470Z,49.50
2018-08-22T12:34:15.078Z,49.40
2018-08-22T12:36:43.563Z,49.50
2018-08-22T12:39:12.094Z,49.70
2018-08-22T12:41:40.582Z,50.10
2018-08-22T12:44:09.142Z,49.40
2018-08-22T12:46:37.656Z,49.50
2018-08-22T12:49:06.185Z,49.50
2018-08-22T12:51:34.698Z,49.80
2018-08-22T12:54:03.312Z,50.20
2018-08-22T12:56:31.837Z,50.10
2018-08-22T12:59:00.328Z,49.20
2018-08-22T13:01:28.884Z,49.20
2018-08-22T13:03:57.950Z,48.70
2018-08-22T13:06:26.455Z,49.20
2018-08-22T13:08:54.957Z,48.80
2018-08-22T13:11:23.451Z,48.90
2018-08-22T13:13:52.102Z,48.40
2018-08-22T13:16:20.640Z,47.70
2018-08-22T13:18:49.137Z,47.50
2018-08-22T13:21:17.683Z,47.10
2018-08-22T13:23:46.438Z,47.00
2018-08-22T13:26:14.913Z,47.30
2018-08-22T13:28:43.515Z,46.90
2018-08-22T13:31:12.079Z,46.30
2018-08-22T13:33:40.592Z,45.60
2018-08-22T13:36:09.143Z,45.40
2018-08-22T13:38:37.553Z,45.50
2018-08-22T13:41:06.017Z,45.40
2018-08-22T13:43:34.649Z,45.10
2018-08-22T13:46:03.175Z,42.80
2018-08-22T13:48:31.653Z,38.80
2018-08-22T13:51:00.121Z,37.80
2018-08-22T13:53:28.771Z,37.70
2018-08-22T13:55:57.288Z,34.40
2018-08-22T13:58:25.753Z,29.70
2018-08-22T14:00:54.231Z,26.00
2018-08-22T14:03:22.820Z,23.40
2018-08-22T14:05:51.273Z,21.50
2018-08-22T14:08:19.863Z,20.20
2018-08-22T14:10:48.351Z,19.20
2018-08-22T14:13:16.877Z,18.60
2018-08-22T14:15:45.381Z,17.80
2018-08-22T14:18:13.847Z,17.90
2018-08-22T14:20:42.312Z,17.80
2018-08-22T14:23:10.824Z,18.20
2018-08-22T14:25:41.349Z,17.90
2018-08-22T14:28:09.928Z,17.60
2018-08-22T14:30:38.447Z,17.60
2018-08-22T14:33:06.969Z,18.10
2018-08-22T14:35:35.536Z,17.20
2018-08-22T14:38:04.018Z,16.70
2018-08-22T14:40:32.530Z,16.60
2018-08-22T14:43:01.179Z,16.40
2018-08-22T14:45:29.664Z,17.60
2018-08-22T14:47:58.167Z,17.50
2018-08-22T14:50:26.652Z,16.90
2018-08-22T14:52:55.251Z,16.60
2018-08-22T14:55:23.744Z,16.30
2018-08-22T14:57:52.275Z,16.80
2018-08-22T15:00:20.770Z,16.10
2018-08-22T15:02:49.463Z,16.00
2018-08-22T15:05:17.934Z,16.10
2018-08-22T15:07:46.442Z,17.00
2018-08-22T15:10:16.709Z,17.00
2018-08-22T15:12:45.564Z,17.10
2018-08-22T15:15:13.993Z,16.70
2018-08-22T15:17:42.654Z,16.90
2018-08-22T15:20:11.159Z,16.70
2018-08-22T15:22:39.738Z,16.70
2018-08-22T15:25:08.828Z,16.80
2018-08-22T15:27:37.335Z,16.90
2018-08-22T15:30:06.908Z,16.60
2018-08-22T15:32:35.414Z,16.80
2018-08-22T15:35:03.921Z,17.10
2018-08-22T15:37:32.410Z,17.30
2018-08-22T15:40:00.880Z,17.40
2018-08-22T15:42:29.333Z,17.60
2018-08-22T15:44:57.816Z,17.90
2018-08-22T15:47:26.377Z,18.30
2018-08-22T15:49:54.825Z,18.30
2018-08-22T15:52:23.337Z,18.40
2018-08-22T15:55:06.778Z,18.70
2018-08-22T15:57:48.233Z,18.70
2018-08-22T16:00:54.251Z,19.40
2018-08-22T16:03:23.901Z,18.60
2018-08-22T16:05:53.005Z,18.80
2018-08-22T16:08:23.940Z,18.50
2018-08-22T16:10:52.381Z,18.50
2018-08-22T16:13:26.207Z,18.70
2018-08-22T16:15:55.974Z,18.80
2018-08-22T16:18:24.476Z,19.60
2018-08-22T16:20:56.814Z,20.20
2018-08-22T16:23:27.630Z,20.60
2018-08-22T16:25:57.260Z,21.10
2018-08-22T16:28:26.387Z,21.10
2018-08-22T16:30:57.173Z,21.50
2018-08-22T16:33:25.162Z,21.90
2018-08-22T16:35:53.645Z,22.30
2018-08-22T16:38:22.165Z,22.40
2018-08-22T16:40:52.216Z,22.30
2018-08-22T16:43:37.015Z,22.70
2018-08-22T16:46:07.617Z,23.20
2018-08-22T16:48:36.482Z,24.20
2018-08-22T16:51:05.030Z,25.70
2018-08-22T16:53:34.178Z,27.10
2018-08-22T16:56:02.772Z,28.80
2018-08-22T16:58:31.328Z,30.10
2018-08-22T17:00:59.779Z,31.60
2018-08-22T17:03:28.378Z,32.90
2018-08-22T17:06:02.675Z,34.40
2018-08-22T17:08:31.183Z,35.60
2018-08-22T17:11:01.008Z,36.70
2018-08-22T17:13:40.667Z,37.50
2018-08-22T17:16:09.167Z,38.00
2018-08-22T17:18:37.670Z,39.00
2018-08-22T17:21:06.174Z,39.60
2018-08-22T17:23:34.747Z,40.70
2018-08-22T17:26:03.293Z,41.70
2018-08-22T17:28:38.436Z,42.50
2018-08-22T17:31:09.958Z,43.20
2018-08-22T17:33:42.765Z,44.20
2018-08-22T17:36:12.348Z,45.50
2018-08-22T17:38:43.884Z,46.40
2018-08-22T17:41:12.680Z,47.10
2018-08-22T17:44:06.180Z,47.90
2018-08-22T17:46:36.068Z,49.60
2018-08-22T17:49:04.524Z,49.40
2018-08-22T17:51:41.194Z,50.50
2018-08-22T17:54:09.712Z,51.00
2018-08-22T17:56:38.218Z,51.30
2018-08-22T17:59:06.721Z,51.80
2018-08-22T18:01:35.245Z,52.50
2018-08-22T18:04:03.874Z,53.30
2018-08-22T18:06:32.509Z,53.60
2018-08-22T18:09:02.757Z,54.10
2018-08-22T18:11:31.288Z,54.70
2018-08-22T18:13:59.897Z,55.00
2018-08-22T18:16:28.388Z,55.40
2018-08-22T18:18:56.864Z,55.70
2018-08-22T18:21:32.906Z,56.10
2018-08-22T18:24:01.836Z,56.70
2018-08-22T18:26:30.350Z,56.60
2018-08-22T18:28:58.884Z,57.60
2018-08-22T18:31:27.410Z,57.80
2018-08-22T18:33:58.402Z,57.90
2018-08-22T18:36:28.210Z,58.80
2018-08-22T18:39:16.672Z,59.70
2018-08-22T18:41:45.198Z,60.10
2018-08-22T18:44:15.912Z,61.20
2018-08-22T18:46:44.395Z,61.80
2018-08-22T18:49:12.929Z,62.50
2018-08-22T18:51:41.425Z,62.50
2018-08-22T18:54:09.999Z,63.30
2018-08-22T18:56:38.500Z,63.70
2018-08-22T18:59:18.207Z,64.00
2018-08-22T19:01:46.712Z,64.40
2018-08-22T19:04:16.198Z,65.60
2018-08-22T19:06:44.673Z,65.30
2018-08-22T19:09:13.152Z,65.80
2018-08-22T19:11:41.679Z,66.20
2018-08-22T19:14:10.224Z,66.40
2018-08-22T19:16:38.748Z,67.10
2018-08-22T19:19:07.274Z,67.30
2018-08-22T19:21:35.786Z,67.70
2018-08-22T19:24:04.980Z,68.40
2018-08-22T19:26:33.594Z,68.70
2018-08-22T19:29:03.810Z,69.00
2018-08-22T19:31:32.275Z,69.40
2018-08-22T19:34:00.905Z,70.00
2018-08-22T19:36:29.443Z,70.40
2018-08-22T19:38:57.943Z,71.00
2018-08-22T19:41:30.091Z,71.50
2018-08-22T19:43:58.653Z,71.80
2018-08-22T19:46:27.215Z,72.30
2018-08-22T19:48:55.770Z,73.40
2018-08-22T19:51:24.206Z,74.10
2018-08-22T19:54:01.380Z,74.90
2018-08-22T19:56:30.468Z,75.50
2018-08-22T19:58:59.071Z,76.20
2018-08-22T20:01:30.602Z,76.80
2018-08-22T20:03:59.287Z,77.40
2018-08-22T20:06:28.296Z,78.30
2018-08-22T20:08:57.889Z,78.70
2018-08-22T20:11:26.790Z,79.20
2018-08-22T20:13:59.252Z,80.20
2018-08-22T20:16:27.844Z,80.80
2018-08-22T20:18:58.618Z,81.50
2018-08-22T20:21:31.082Z,82.10
2018-08-22T20:24:00.206Z,83.50
2018-08-22T20:26:29.358Z,83.90
2018-08-22T20:28:59.605Z,90.10
2018-08-22T20:31:28.097Z,91.30
2018-08-22T20:34:05.734Z,90.00
2018-08-22T20:36:34.296Z,90.80
2018-08-22T20:39:06.603Z,91.40
2018-08-22T20:41:35.367Z,92.10
2018-08-22T20:44:16.551Z,93.20
2018-08-22T20:46:46.227Z,93.80
2018-08-22T20:49:15.938Z,93.40
2018-08-22T20:51:44.438Z,94.20
2018-08-22T20:54:14.129Z,94.80
2018-08-22T20:56:48.571Z,97.30
2018-08-22T20:59:18.281Z,92.80
2018-08-22T21:01:49.806Z,93.20
2018-08-22T21:04:18.416Z,93.90
2018-08-22T21:06:46.915Z,94.20
2018-08-22T21:09:15.411Z,94.70
2018-08-22T21:11:44.337Z,95.20
2018-08-22T21:14:13.165Z,95.50
2018-08-22T21:16:41.677Z,95.90
2018-08-22T21:19:10.175Z,96.10
2018-08-22T21:21:38.920Z,96.40
2018-08-22T21:24:07.491Z,97.00
2018-08-22T21:26:43.759Z,97.50
2018-08-22T21:29:12.457Z,97.90
2018-08-22T21:31:40.978Z,98.30
2018-08-22T21:34:14.981Z,98.60
2018-08-22T21:36:45.055Z,99.00
2018-08-22T21:39:18.994Z,99.50
2018-08-22T21:41:47.987Z,99.90
2018-08-22T21:44:21.230Z,99.90
2018-08-22T21:46:56.038Z,99.90
2018-08-22T21:49:24.929Z,99.90
2018-08-22T21:51:54.437Z,99.90
2018-08-22T21:54:22.952Z,99.90
2018-08-22T21:56:51.461Z,99.90
2018-08-22T21:59:19.996Z,99.90
2018-08-22T22:01:53.670Z,99.90
2018-08-22T22:04:31.474Z,99.90
2018-08-22T22:07:00.042Z,99.90
2018-08-22T22:09:28.567Z,99.90
2018-08-22T22:11:58.732Z,99.90
2018-08-22T22:14:31.012Z,99.90
2018-08-22T22:17:00.577Z,99.90
2018-08-22T22:19:30.875Z,99.90
2018-08-22T22:21:59.807Z,99.90
2018-08-22T22:24:28.399Z,99.90
2018-08-22T22:26:57.125Z,99.90
2018-08-22T22:29:32.713Z,99.90
2018-08-22T22:32:04.230Z,99.90
2018-08-22T22:34:35.631Z,99.90
2018-08-22T22:37:04.103Z,99.90
2018-08-22T22:39:41.292Z,99.90
2018-08-22T22:42:15.559Z,99.90
2018-08-22T22:44:48.040Z,99.90
2018-08-22T22:47:21.748Z,99.90
2018-08-22T22:49:51.056Z,99.90
2018-08-22T22:52:43.184Z,99.90
2018-08-22T22:55:12.142Z,99.90
